createdAt,value
2022-12-03T00:00:53.145Z,8.00
2022-12-03T00:03:20.428Z,8.13
2022-12-03T00:05:49.009Z,7.47
2022-12-03T00:08:16.471Z,8.20
2022-12-03T00:10:43.637Z,8.90
2022-12-03T00:15:37.454Z,8.52
2022-12-03T00:18:04.819Z,8.02
2022-12-03T00:20:31.973Z,7.78
2022-12-03T00:23:00.435Z,8.27
2022-12-03T00:27:54.412Z,8.57
2022-12-03T00:32:48.596Z,8.15
2022-12-03T00:35:15.856Z,8.43
2022-12-03T00:37:43.188Z,7.53
2022-12-03T00:40:11.799Z,7.35
2022-12-03T00:42:38.849Z,8.88
2022-12-03T00:47:32.825Z,8.05
2022-12-03T00:52:26.497Z,7.07
2022-12-03T00:57:20.748Z,7.22
2022-12-03T01:02:14.424Z,8.05
2022-12-03T01:04:41.791Z,8.90
2022-12-03T01:07:08.932Z,6.90
2022-12-03T01:12:02.918Z,7.25
2022-12-03T01:14:30.035Z,6.97
2022-12-03T01:19:24.396Z,7.55
2022-12-03T01:21:52.124Z,7.97
2022-12-03T01:24:19.975Z,8.05
2022-12-03T01:26:47.323Z,9.35
2022-12-03T01:29:15.010Z,9.15
2022-12-03T01:32:01.953Z,9.00
2022-12-03T01:34:29.204Z,8.48
2022-12-03T01:36:56.529Z,8.20
2022-12-03T01:39:23.658Z,7.25
2022-12-03T01:44:26.291Z,7.07
2022-12-03T01:46:55.190Z,7.18
2022-12-03T01:49:24.200Z,9.43
2022-12-03T01:51:52.827Z,8.20
2022-12-03T01:54:21.736Z,9.43
2022-12-03T01:56:49.309Z,8.27
2022-12-03T01:59:20.554Z,7.53
2022-12-03T02:01:47.832Z,8.30
2022-12-03T02:04:16.717Z,8.32
2022-12-03T02:06:44.868Z,8.75
2022-12-03T02:09:13.104Z,8.07
2022-12-03T02:11:50.207Z,8.82
2022-12-03T02:14:19.861Z,8.38
2022-12-03T02:16:47.450Z,7.65
2022-12-03T02:19:24.706Z,7.78
2022-12-03T02:21:58.908Z,7.65
2022-12-03T02:24:52.745Z,8.05
2022-12-03T02:27:20.202Z,8.18
2022-12-03T02:29:47.410Z,8.15
2022-12-03T02:34:43.352Z,8.30
2022-12-03T02:37:16.698Z,7.45
2022-12-03T02:42:32.825Z,7.95
2022-12-03T02:45:05.419Z,8.50
2022-12-03T02:47:34.547Z,8.25
2022-12-03T02:50:01.874Z,7.93
2022-12-03T02:52:29.198Z,8.15
2022-12-03T02:54:56.458Z,8.70
2022-12-03T02:57:23.793Z,8.80
2022-12-03T02:59:51.146Z,8.45
2022-12-03T03:02:18.478Z,8.82
2022-12-03T03:04:45.818Z,8.88
2022-12-03T03:07:13.102Z,8.40
2022-12-03T03:09:42.002Z,8.43
2022-12-03T03:12:10.771Z,8.95
2022-12-03T03:14:37.836Z,8.10
2022-12-03T03:19:31.620Z,8.77
2022-12-03T03:21:58.832Z,8.73
2022-12-03T03:24:26.356Z,7.55
2022-12-03T03:26:53.763Z,7.75
2022-12-03T03:29:20.968Z,7.85
2022-12-03T03:31:48.352Z,8.45
2022-12-03T03:34:15.952Z,8.77
2022-12-03T03:36:43.173Z,9.27
2022-12-03T03:39:10.456Z,8.77
2022-12-03T03:41:37.911Z,7.82
2022-12-03T03:44:06.840Z,9.63
2022-12-03T03:46:34.767Z,9.25
2022-12-03T03:49:03.059Z,9.32
2022-12-03T03:51:30.555Z,8.10
2022-12-03T03:53:58.016Z,9.10
2022-12-03T03:56:25.536Z,9.00
2022-12-03T03:58:52.728Z,8.30
2022-12-03T04:01:20.916Z,8.85
2022-12-03T04:03:48.210Z,9.10
2022-12-03T04:06:15.435Z,8.50
2022-12-03T04:08:42.638Z,9.75
2022-12-03T04:11:29.162Z,9.05
2022-12-03T04:13:56.430Z,10.13
2022-12-03T04:16:23.574Z,9.40
2022-12-03T04:18:50.884Z,8.43
2022-12-03T04:21:38.033Z,8.90
2022-12-03T04:24:05.672Z,9.48
2022-12-03T04:26:51.305Z,9.30
2022-12-03T04:29:19.019Z,7.78
2022-12-03T04:32:04.620Z,8.43
2022-12-03T04:34:51.314Z,8.77
2022-12-03T04:37:18.886Z,9.45
2022-12-03T04:39:46.031Z,7.80
2022-12-03T04:42:13.247Z,8.98
2022-12-03T04:44:40.428Z,8.65
2022-12-03T04:47:10.694Z,8.43
2022-12-03T04:49:39.219Z,8.95
2022-12-03T04:52:06.718Z,8.98
2022-12-03T04:54:34.159Z,8.52
2022-12-03T04:57:02.685Z,10.43
2022-12-03T04:59:29.830Z,9.45
2022-12-03T05:01:58.339Z,9.60
2022-12-03T05:04:25.479Z,9.43
2022-12-03T05:09:19.740Z,8.98
2022-12-03T05:11:46.914Z,9.73
2022-12-03T05:14:14.000Z,9.52
2022-12-03T05:19:08.960Z,9.75
2022-12-03T05:21:36.215Z,6.75
2022-12-03T05:24:03.389Z,10.38
2022-12-03T05:26:30.480Z,8.55
2022-12-03T05:31:24.505Z,8.30
2022-12-03T05:33:51.827Z,9.93
2022-12-03T05:36:19.565Z,7.60
2022-12-03T05:39:01.677Z,9.82
2022-12-03T05:44:17.460Z,9.02
2022-12-03T05:46:47.482Z,10.25
2022-12-03T05:51:43.037Z,10.70
2022-12-03T05:54:10.184Z,11.85
2022-12-03T05:56:37.302Z,11.35
2022-12-03T05:59:04.484Z,11.20
2022-12-03T06:01:31.685Z,11.15
2022-12-03T06:03:58.928Z,11.73
2022-12-03T06:06:26.242Z,11.15
2022-12-03T06:08:53.284Z,11.40
2022-12-03T06:11:20.434Z,10.75
2022-12-03T06:13:47.674Z,10.98
2022-12-03T06:16:14.877Z,10.75
2022-12-03T06:18:41.954Z,10.77
2022-12-03T06:23:37.270Z,10.82
2022-12-03T06:26:04.437Z,10.20
2022-12-03T06:28:31.509Z,10.52
2022-12-03T06:33:25.256Z,10.55
2022-12-03T06:35:52.449Z,10.63
2022-12-03T06:40:46.149Z,9.88
2022-12-03T06:45:44.566Z,9.07
2022-12-03T06:48:14.897Z,9.82
2022-12-03T06:50:42.032Z,10.15
2022-12-03T06:55:36.320Z,9.32
2022-12-03T06:58:03.393Z,9.98
2022-12-03T07:02:57.235Z,10.27
2022-12-03T07:05:24.356Z,9.55
2022-12-03T07:10:20.009Z,9.15
2022-12-03T07:12:47.203Z,9.43
2022-12-03T07:15:14.429Z,9.38
2022-12-03T07:17:41.641Z,9.60
2022-12-03T07:20:09.028Z,9.52
2022-12-03T07:22:36.100Z,9.65
2022-12-03T07:27:29.915Z,8.88
2022-12-03T07:32:23.561Z,8.93
2022-12-03T07:37:22.657Z,8.50
2022-12-03T07:39:52.308Z,8.40
2022-12-03T07:42:19.472Z,9.85
2022-12-03T07:47:13.335Z,8.77
2022-12-03T07:49:40.570Z,8.70
2022-12-03T07:52:07.749Z,9.77
2022-12-03T07:54:35.153Z,8.93
2022-12-03T07:57:02.283Z,9.43
2022-12-03T08:01:56.274Z,10.07
2022-12-03T08:04:23.530Z,8.55
2022-12-03T08:06:50.703Z,10.02
2022-12-03T08:11:46.089Z,10.93
2022-12-03T08:14:17.944Z,10.15
2022-12-03T08:16:46.000Z,9.30
2022-12-03T08:19:14.090Z,10.70
2022-12-03T08:21:41.740Z,9.80
2022-12-03T08:24:13.668Z,10.50
2022-12-03T08:26:41.183Z,9.02
2022-12-03T08:29:12.923Z,9.48
2022-12-03T08:31:40.841Z,11.25
2022-12-03T08:34:18.980Z,10.30
2022-12-03T08:36:46.465Z,11.82
2022-12-03T08:39:13.695Z,10.13
2022-12-03T08:41:59.473Z,11.50
2022-12-03T08:44:27.305Z,10.38
2022-12-03T08:47:19.933Z,11.35
2022-12-03T08:49:55.693Z,11.23
2022-12-03T08:52:27.522Z,9.77
2022-12-03T08:54:56.021Z,11.50
2022-12-03T08:57:33.622Z,10.93
2022-12-03T09:00:01.423Z,10.00
2022-12-03T09:02:33.698Z,11.65
2022-12-03T09:05:14.238Z,10.20
2022-12-03T09:07:41.478Z,10.52
2022-12-03T09:10:09.009Z,11.82
2022-12-03T09:12:36.198Z,10.40
2022-12-03T09:15:03.272Z,11.13
2022-12-03T09:19:57.014Z,10.73
2022-12-03T09:24:51.013Z,10.00
2022-12-03T09:27:18.526Z,10.52
2022-12-03T09:29:45.747Z,11.25
2022-12-03T09:32:18.139Z,10.77
2022-12-03T09:34:45.889Z,12.27
2022-12-03T09:37:13.016Z,9.98
2022-12-03T09:39:40.223Z,11.18
2022-12-03T09:42:07.388Z,9.25
2022-12-03T09:44:35.441Z,11.82
2022-12-03T09:47:03.213Z,10.32
2022-12-03T09:49:31.747Z,10.40
2022-12-03T09:51:59.268Z,10.02
2022-12-03T09:54:27.999Z,9.20
2022-12-03T09:56:56.792Z,7.82
2022-12-03T09:59:26.989Z,9.85
2022-12-03T10:01:54.756Z,8.98
2022-12-03T10:04:22.371Z,8.38
2022-12-03T10:06:49.879Z,8.63
2022-12-03T10:09:20.891Z,7.18
2022-12-03T10:11:48.608Z,9.18
2022-12-03T10:14:17.975Z,8.35
2022-12-03T10:16:45.699Z,9.13
2022-12-03T10:19:19.357Z,8.50
2022-12-03T10:21:46.806Z,9.43
2022-12-03T10:24:19.895Z,9.57
2022-12-03T10:26:47.795Z,8.20
2022-12-03T10:29:17.623Z,8.88
2022-12-03T10:31:44.899Z,8.25
2022-12-03T10:34:12.026Z,8.25
2022-12-03T10:39:07.416Z,8.80
2022-12-03T10:41:34.658Z,8.77
2022-12-03T10:44:16.888Z,7.97
2022-12-03T10:46:44.665Z,9.65
2022-12-03T10:49:18.947Z,9.35
2022-12-03T10:51:49.457Z,8.57
2022-12-03T10:54:22.020Z,8.73
2022-12-03T10:56:49.705Z,8.73
2022-12-03T10:59:18.419Z,8.98
2022-12-03T11:01:45.742Z,9.70
2022-12-03T11:04:20.250Z,10.02
2022-12-03T11:06:47.529Z,9.63
2022-12-03T11:09:22.320Z,9.25
2022-12-03T11:11:49.712Z,9.23
2022-12-03T11:14:36.800Z,10.02
2022-12-03T11:17:07.738Z,10.60
2022-12-03T11:19:37.647Z,9.52
2022-12-03T11:22:05.063Z,9.57
2022-12-03T11:24:33.246Z,9.77
2022-12-03T11:27:00.447Z,10.48
2022-12-03T11:29:56.788Z,9.25
2022-12-03T11:32:59.137Z,10.40
2022-12-03T11:35:28.053Z,7.97
2022-12-03T11:37:55.214Z,9.13
2022-12-03T11:42:49.335Z,8.52
2022-12-03T11:45:19.348Z,9.38
2022-12-03T11:47:46.381Z,10.00
2022-12-03T11:50:38.975Z,7.72
2022-12-03T11:53:13.037Z,6.57
2022-12-03T11:55:44.174Z,6.90
2022-12-03T11:58:17.426Z,7.82
2022-12-03T12:00:58.363Z,6.90
2022-12-03T12:03:27.083Z,7.03
2022-12-03T12:06:20.645Z,7.20
2022-12-03T12:08:51.415Z,6.30
2022-12-03T12:11:27.225Z,7.82
2022-12-03T12:13:58.713Z,6.35
2022-12-03T12:16:42.679Z,5.30
2022-12-03T12:19:28.324Z,6.28
2022-12-03T12:21:55.526Z,7.45
2022-12-03T12:24:33.049Z,6.32
2022-12-03T12:27:02.193Z,6.45
2022-12-03T12:29:29.344Z,8.48
2022-12-03T12:32:01.316Z,7.45
2022-12-03T12:34:28.499Z,7.55
2022-12-03T12:36:57.492Z,7.65
2022-12-03T12:39:24.601Z,7.60
2022-12-03T12:44:23.272Z,7.72
2022-12-03T12:46:52.809Z,7.93
2022-12-03T12:49:25.084Z,9.13
2022-12-03T12:51:52.317Z,9.35
2022-12-03T12:54:19.395Z,8.88
2022-12-03T12:59:15.394Z,8.57
2022-12-03T13:01:43.863Z,7.07
2022-12-03T13:04:12.584Z,9.00
2022-12-03T13:06:40.604Z,9.60
2022-12-03T13:09:21.544Z,7.53
2022-12-03T13:11:56.729Z,7.95
2022-12-03T13:14:24.681Z,9.48
2022-12-03T13:16:53.123Z,9.85
2022-12-03T13:19:24.801Z,10.18
2022-12-03T13:21:53.521Z,8.50
2022-12-03T13:24:29.881Z,9.40
2022-12-03T13:26:57.552Z,8.70
2022-12-03T13:29:26.245Z,8.55
2022-12-03T13:31:57.976Z,10.60
2022-12-03T13:34:29.537Z,9.75
2022-12-03T13:36:58.445Z,10.15
2022-12-03T13:39:25.876Z,10.90
2022-12-03T13:42:11.925Z,11.27
2022-12-03T13:44:43.746Z,10.32
2022-12-03T13:47:15.526Z,11.93
2022-12-03T13:49:44.057Z,8.93
2022-12-03T13:52:13.701Z,9.55
2022-12-03T13:54:41.040Z,11.63
2022-12-03T13:57:08.267Z,12.48
2022-12-03T13:59:35.524Z,10.38
2022-12-03T14:02:02.655Z,11.07
2022-12-03T14:06:56.439Z,10.32
2022-12-03T14:09:23.497Z,10.65
2022-12-03T14:12:09.278Z,7.43
2022-12-03T14:14:36.440Z,8.63
2022-12-03T14:17:04.507Z,9.85
2022-12-03T14:19:31.753Z,9.15
2022-12-03T14:24:25.447Z,9.32
2022-12-03T14:29:19.230Z,9.38
2022-12-03T14:31:46.443Z,8.38
2022-12-03T14:34:13.578Z,9.48
2022-12-03T14:36:40.783Z,8.10
2022-12-03T14:39:08.008Z,10.18
2022-12-03T14:41:54.040Z,8.20
2022-12-03T14:44:24.090Z,9.32
2022-12-03T14:46:56.566Z,7.53
2022-12-03T14:49:24.377Z,7.72
2022-12-03T14:51:51.486Z,9.52
2022-12-03T14:56:45.276Z,9.38
2022-12-03T15:01:39.626Z,8.80
2022-12-03T15:04:06.977Z,8.35
2022-12-03T15:06:34.170Z,6.63
2022-12-03T15:09:01.557Z,8.20
2022-12-03T15:11:28.642Z,7.07
2022-12-03T15:16:23.754Z,9.13
2022-12-03T15:18:51.102Z,8.15
2022-12-03T15:21:18.272Z,8.48
2022-12-03T15:26:13.392Z,8.23
2022-12-03T15:28:44.124Z,9.32
2022-12-03T15:33:40.934Z,9.73
2022-12-03T15:38:34.933Z,10.02
2022-12-03T15:41:21.237Z,9.43
2022-12-03T15:43:52.559Z,11.38
2022-12-03T15:46:20.264Z,10.02
2022-12-03T15:48:47.806Z,9.30
2022-12-03T15:51:15.214Z,12.18
2022-12-03T15:53:42.568Z,10.32
2022-12-03T15:56:11.803Z,13.18
2022-12-03T15:58:39.300Z,8.82
2022-12-03T16:01:06.927Z,10.75
2022-12-03T16:03:34.144Z,10.27
2022-12-03T16:08:28.406Z,10.10
2022-12-03T16:10:55.557Z,12.70
2022-12-03T16:15:49.570Z,12.20
2022-12-03T16:18:16.869Z,12.25
2022-12-03T16:23:10.602Z,12.38
2022-12-03T16:28:04.434Z,12.50
2022-12-03T16:30:31.640Z,12.35
2022-12-03T16:35:25.412Z,11.90
2022-12-03T16:37:52.584Z,11.85
2022-12-03T16:42:46.431Z,10.73
2022-12-03T16:45:33.343Z,10.57
2022-12-03T16:48:01.755Z,12.60
2022-12-03T16:50:30.345Z,10.13
2022-12-03T16:52:58.025Z,12.70
2022-12-03T16:55:25.485Z,8.48
2022-12-03T16:57:52.539Z,12.60
2022-12-03T17:00:21.756Z,11.32
2022-12-03T17:02:48.950Z,11.55
2022-12-03T17:05:16.264Z,12.35
2022-12-03T17:10:10.459Z,11.68
2022-12-03T17:13:07.633Z,13.00
2022-12-03T17:15:24.650Z,12.57
2022-12-03T17:17:53.573Z,11.85
2022-12-03T17:22:47.772Z,11.15
2022-12-03T17:25:14.941Z,9.80
2022-12-03T17:27:44.981Z,10.32
2022-12-03T17:30:13.190Z,12.73
2022-12-03T17:32:40.691Z,12.82
2022-12-03T17:35:08.265Z,13.13
2022-12-03T17:37:35.361Z,11.30
2022-12-03T17:42:29.547Z,11.60
2022-12-03T17:47:24.596Z,12.20
2022-12-03T17:52:18.635Z,11.88
2022-12-03T17:55:09.151Z,11.35
2022-12-03T17:57:32.841Z,12.93
2022-12-03T18:02:26.600Z,12.48
2022-12-03T18:07:20.266Z,12.45
2022-12-03T18:12:14.572Z,12.10
2022-12-03T18:14:41.789Z,14.15
2022-12-03T18:17:08.880Z,11.52
2022-12-03T18:19:36.011Z,13.00
2022-12-03T18:24:29.750Z,13.23
2022-12-03T18:29:23.880Z,10.57
2022-12-03T18:34:18.122Z,12.52
2022-12-03T18:39:15.042Z,11.43
2022-12-03T18:41:42.171Z,12.05
2022-12-03T18:46:54.006Z,11.10
2022-12-03T18:49:21.812Z,11.98
2022-12-03T18:51:50.389Z,11.98
2022-12-03T18:54:19.523Z,13.68
2022-12-03T18:56:46.640Z,12.98
2022-12-03T19:01:40.546Z,12.77
2022-12-03T19:04:07.725Z,12.90
2022-12-03T19:09:01.534Z,11.02
2022-12-03T19:11:28.640Z,12.52
2022-12-03T19:16:24.373Z,9.35
2022-12-03T19:18:53.176Z,10.98
2022-12-03T19:21:20.441Z,10.48
2022-12-03T19:24:22.044Z,12.75
2022-12-03T19:26:34.771Z,12.98
2022-12-03T19:29:01.994Z,13.30
2022-12-03T19:31:33.168Z,10.90
2022-12-03T19:34:00.484Z,11.77
2022-12-03T19:36:29.253Z,11.85
2022-12-03T19:38:57.637Z,11.40
2022-12-03T19:41:27.286Z,11.27
2022-12-03T19:43:55.326Z,11.80
2022-12-03T19:46:23.395Z,12.32
2022-12-03T19:48:50.491Z,11.18
2022-12-03T19:51:33.674Z,11.27
2022-12-03T19:54:02.273Z,12.23
2022-12-03T19:56:32.262Z,13.60
2022-12-03T19:58:59.415Z,12.50
2022-12-03T20:03:54.833Z,11.70
2022-12-03T20:06:24.061Z,10.15
2022-12-03T20:08:51.406Z,12.43
2022-12-03T20:11:19.800Z,12.68
2022-12-03T20:13:48.023Z,11.40
2022-12-03T20:16:15.865Z,11.10
2022-12-03T20:18:44.211Z,10.82
2022-12-03T20:21:12.185Z,12.93
2022-12-03T20:23:39.704Z,11.63
2022-12-03T20:26:10.652Z,11.52
2022-12-03T20:28:38.091Z,11.40
2022-12-03T20:31:10.646Z,12.80
2022-12-03T20:33:38.669Z,12.57
2022-12-03T20:36:06.001Z,11.52
2022-12-03T20:38:33.378Z,11.77
2022-12-03T20:41:04.828Z,11.98
2022-12-03T20:43:31.984Z,10.50
2022-12-03T20:46:06.692Z,11.27
2022-12-03T20:48:33.893Z,11.00
2022-12-03T20:53:29.886Z,10.38
2022-12-03T20:55:57.375Z,11.95
2022-12-03T20:58:24.486Z,11.88
2022-12-03T21:03:18.406Z,11.18
2022-12-03T21:05:45.631Z,11.75
2022-12-03T21:08:12.965Z,11.68
2022-12-03T21:10:49.783Z,11.82
2022-12-03T21:13:17.565Z,11.45
2022-12-03T21:15:45.341Z,11.63
2022-12-03T21:18:14.065Z,9.82
2022-12-03T21:20:42.169Z,12.18
2022-12-03T21:23:09.680Z,13.20
2022-12-03T21:25:37.611Z,12.02
2022-12-03T21:28:06.216Z,11.73
2022-12-03T21:30:33.869Z,11.43
2022-12-03T21:33:01.018Z,10.45
2022-12-03T21:37:54.915Z,12.43
2022-12-03T21:40:22.069Z,11.23
2022-12-03T21:45:16.210Z,11.13
2022-12-03T21:47:46.697Z,11.00
2022-12-03T21:50:13.915Z,11.52
2022-12-03T21:52:41.089Z,11.50
2022-12-03T21:57:38.495Z,11.18
2022-12-03T22:00:07.666Z,12.93
2022-12-03T22:02:38.946Z,10.75
2022-12-03T22:05:06.753Z,11.32
2022-12-03T22:07:34.365Z,12.07
2022-12-03T22:10:01.528Z,12.60
2022-12-03T22:14:57.172Z,10.98
2022-12-03T22:17:24.786Z,11.68
2022-12-03T22:19:51.993Z,11.50
2022-12-03T22:22:19.385Z,10.60
2022-12-03T22:24:46.603Z,12.50
2022-12-03T22:27:14.304Z,11.70
2022-12-03T22:29:41.406Z,10.65
2022-12-03T22:34:35.090Z,11.82
2022-12-03T22:37:02.295Z,11.02
2022-12-03T22:41:56.601Z,11.15
2022-12-03T22:44:23.658Z,12.13
2022-12-03T22:49:17.377Z,10.68
2022-12-03T22:54:16.238Z,11.80
2022-12-03T22:56:45.277Z,11.95
2022-12-03T22:59:12.420Z,9.55
2022-12-03T23:04:08.285Z,12.45
2022-12-03T23:06:36.369Z,11.65
2022-12-03T23:09:04.607Z,12.50
2022-12-03T23:11:32.167Z,10.50
2022-12-03T23:13:59.638Z,10.32
2022-12-03T23:16:29.024Z,12.30
2022-12-03T23:18:57.917Z,13.38
2022-12-03T23:21:29.872Z,13.35
2022-12-03T23:23:58.469Z,11.20
2022-12-03T23:26:25.657Z,14.10
2022-12-03T23:31:24.739Z,12.35
2022-12-03T23:33:52.164Z,12.65
2022-12-03T23:36:19.557Z,13.35
2022-12-03T23:38:46.663Z,14.75
2022-12-03T23:43:42.038Z,12.77
2022-12-03T23:46:14.740Z,11.18
2022-12-03T23:48:42.428Z,12.85
2022-12-03T23:51:11.740Z,12.35
2022-12-03T23:53:39.645Z,12.40
2022-12-03T23:56:07.292Z,12.80
2022-12-03T23:58:34.499Z,12.98
